• Join FlightAware (Why Join?)
  • Login
  • US Flag 
01:50PM EDT


 

Airport Tracker/Info


-or-


 

Live Flight TrackerFlight Track Log ✈ CES5704 ✈ 12-May-2013 ✈ ZBAA / PEK - ZLJN / JNG

Flight Track Log - Related Links

Times and Time Zones

All times are in EDT time to prevent confusion due to time zone crossing. See the CES5704 flight status page for this flight to view local times or setup timezone preferences in your user account.

Time Position Orientation Groundspeed Altitude Reporting Facility
EDT Latitude Longitude Course Direction KTS MPH feet Rate Location/Type
08:17AM 39.9360 116.6620 106° East 280 322 5,500  Level FlightAware
08:17AM 39.9340 116.6990 94° East 282 325 5,800 840 Climbing FlightAware
08:18AM 39.9300 116.7520 96° East 273 314 6,300 720 Climbing FlightAware
08:18AM 39.9290 116.7670 95° East 273 314 6,300  Level FlightAware
08:18AM 39.9270 116.8070 94° East 273 314 6,300 2,520 Level FlightAware
08:21AM 39.8007 116.7936 185° South  Level Estimated
08:21AM 39.8000 116.9920 185° South 300 345 14,600  Level FlightAware
08:22AM 39.7430 116.9930 179° South 300 345 14,600 2,160 Level FlightAware
08:22AM 39.8000 116.9920 359° North 346 398 17,300 2,160 Climbing FlightAware
08:23AM 39.7350 116.9910 181° South 346 398 17,300  Level FlightAware
08:24AM 39.6670 116.9890 181° South 346 398 17,300  Level FlightAware
08:25AM 39.5990 116.9870 181° South 346 398 17,300  Level FlightAware
08:26AM 39.5310 116.9860 181° South 346 398 17,300  Level FlightAware
08:26AM 39.4770 116.9850 181° South 346 398 17,300  Level FlightAware
08:29AM 39.3044 116.9572 187° South  Level Estimated
08:30AM 39.2266 116.9447 187° South  Level Estimated
08:31AM 39.1487 116.9322 187° South  Level Estimated
08:32AM 39.0709 116.9197 187° South  Level Estimated
08:33AM 38.9930 116.9073 187° South  Level Estimated
08:34AM 38.9152 116.8949 187° South  Level Estimated
08:35AM 38.8373 116.8826 187° South  Level Estimated
08:36AM 38.7594 116.8702 187° South  Level Estimated
08:37AM 38.6816 116.8579 187° South  Level Estimated
08:38AM 38.6037 116.8456 187° South  Level Estimated
08:39AM 38.5259 116.8334 187° South  Level Estimated
08:40AM 38.4480 116.8211 187° South  Level Estimated
08:41AM 38.3701 116.8089 187° South  Level Estimated
08:42AM 38.2923 116.7968 187° South  Level Estimated
08:43AM 38.2144 116.7846 187° South  Level Estimated
08:44AM 38.1365 116.7725 187° South  Level Estimated
08:45AM 38.0587 116.7604 187° South  Level Estimated
08:46AM 37.9808 116.7483 187° South  Level Estimated
08:47AM 37.9029 116.7362 187° South  Level Estimated
08:48AM 37.8250 116.7242 187° South  Level Estimated
08:49AM 37.7472 116.7122 187° South  Level Estimated
08:50AM 37.6693 116.7002 187° South  Level Estimated
08:51AM 37.5914 116.6883 187° South  Level Estimated
08:52AM 37.5135 116.6764 187° South  Level Estimated
08:53AM 37.4356 116.6645 187° South  Level Estimated
08:54AM 37.3578 116.6526 187° South  Level Estimated
08:55AM 37.2799 116.6407 187° South  Level Estimated
08:56AM 37.2020 116.6289 187° South  Level Estimated
08:57AM 37.1241 116.6171 187° South  Level Estimated
08:58AM 37.0462 116.6053 187° South  Level Estimated
08:59AM 36.9683 116.5936 187° South  Level Estimated
09:00AM 36.8904 116.5818 187° South  Level Estimated
09:01AM 36.8126 116.5701 187° South  Level Estimated
09:02AM 36.7347 116.5584 187° South  Level Estimated
09:03AM 36.6568 116.5468 187° South  Level Estimated
09:04AM 36.5789 116.5351 187° South  Level Estimated
09:05AM 36.5010 116.5235 187° South  Level Estimated
09:06AM 36.4096 116.5099 187° South  Level Estimated
09:07AM 36.3182 116.4964 187° South  Level Estimated
09:08AM 36.2269 116.4829 187° South  Level Estimated
09:09AM 36.1355 116.4694 187° South  Level Estimated
09:10AM 36.0441 116.4559 187° South  Level Estimated
09:11AM 35.9527 116.4425 187° South  Level Estimated
09:12AM 35.8613 116.4291 187° South  Level Estimated
09:13AM 35.7699 116.4157 187° South  Level Estimated
09:14AM 35.6786 116.4024 187° South  Level Estimated
09:15AM 35.5872 116.3891 187° South  Level Estimated
09:16AM 35.4958 116.3758 187° South  Level Estimated
09:17AM 35.4044 116.3625 187° South  Level Estimated
09:18AM 35.3130 116.3493 187° South  Level Estimated
09:19AM 35.2928 116.3464 187° South  Level Estimated
09:20AM 35.2928 116.3464 202° Southwest  Level Estimated
09:21AM 35.2928 116.3464 202° Southwest  Level Estimated
09:22AM 35.2928 116.3464 202° Southwest  Level Estimated